createdAt,value
2023-09-12T00:00:32.471Z,81.9
2023-09-12T00:01:32.479Z,81.8
2023-09-12T00:02:32.487Z,81.9
2023-09-12T00:03:32.561Z,81.9
2023-09-12T00:04:32.530Z,81.9
2023-09-12T00:05:32.479Z,82
2023-09-12T00:06:32.516Z,81.9
2023-09-12T00:07:32.443Z,81.7
2023-09-12T00:08:32.475Z,81.4
2023-09-12T00:09:32.552Z,81.6
2023-09-12T00:10:32.524Z,81.4
2023-09-12T00:11:32.483Z,81.4
2023-09-12T00:12:32.511Z,82
2023-09-12T00:13:32.528Z,82.7
2023-09-12T00:14:32.484Z,82.1
2023-09-12T00:15:32.560Z,82.5
2023-09-12T00:16:32.532Z,82.3
2023-09-12T00:17:32.546Z,81.8
2023-09-12T00:18:32.540Z,82.6
2023-09-12T00:19:32.542Z,83.4
2023-09-12T00:20:32.538Z,83.5
2023-09-12T00:21:32.561Z,83.8
2023-09-12T00:22:32.516Z,83.9
2023-09-12T00:23:32.534Z,83.9
2023-09-12T00:24:32.619Z,84
2023-09-12T00:25:32.536Z,84.3
2023-09-12T00:26:32.535Z,84.2
2023-09-12T00:27:32.582Z,84.5
2023-09-12T00:28:32.532Z,84.6
2023-09-12T00:29:32.557Z,84.8
2023-09-12T00:30:32.589Z,84.8
2023-09-12T00:31:32.590Z,84.9
2023-09-12T00:32:32.575Z,85
2023-09-12T00:33:32.699Z,85.6
2023-09-12T00:34:32.564Z,85.7
2023-09-12T00:35:32.609Z,86.6
2023-09-12T00:36:32.639Z,87.2
2023-09-12T00:37:32.588Z,87
2023-09-12T00:38:32.609Z,87.5
2023-09-12T00:39:32.653Z,87.8
2023-09-12T00:40:32.637Z,87.5
2023-09-12T00:41:32.562Z,87.4
2023-09-12T00:42:32.631Z,87.3
2023-09-12T00:43:32.606Z,86.9
2023-09-12T00:44:32.547Z,87.4
2023-09-12T00:45:32.822Z,86.8
2023-09-12T00:46:32.618Z,86
2023-09-12T00:47:32.683Z,86.3
2023-09-12T00:48:32.688Z,85.9
2023-09-12T00:49:32.625Z,86.8
2023-09-12T00:50:32.701Z,87.8
2023-09-12T00:51:32.668Z,87.8
2023-09-12T00:52:32.653Z,87.9
2023-09-12T00:53:32.603Z,87.5
2023-09-12T00:54:32.683Z,87
2023-09-12T00:55:32.665Z,87.3
2023-09-12T00:56:32.651Z,87.2
2023-09-12T00:57:32.694Z,87
2023-09-12T00:58:32.621Z,87
2023-09-12T00:59:32.684Z,86.8
2023-09-12T01:00:32.746Z,86.5
2023-09-12T01:01:32.739Z,86.8
2023-09-12T01:02:32.772Z,86.4
2023-09-12T01:03:32.756Z,86.5
2023-09-12T01:04:35.334Z,86.5
2023-09-12T01:05:32.715Z,86.4
2023-09-12T01:06:32.711Z,86.2
2023-09-12T01:07:32.665Z,86
2023-09-12T01:08:32.732Z,85.9
2023-09-12T01:09:32.809Z,86
2023-09-12T01:10:32.731Z,86.1
2023-09-12T01:11:32.713Z,86
2023-09-12T01:12:32.879Z,85.5
2023-09-12T01:13:32.733Z,85.8
2023-09-12T01:14:32.706Z,85.6
2023-09-12T01:15:32.746Z,85.4
2023-09-12T01:16:32.782Z,85.5
2023-09-12T01:17:32.759Z,85.4
2023-09-12T01:18:32.853Z,85.2
2023-09-12T01:19:32.752Z,85.2
2023-09-12T01:20:32.760Z,85.2
2023-09-12T01:21:32.789Z,85.2
2023-09-12T01:22:32.749Z,85.3
2023-09-12T01:23:32.771Z,85.5
2023-09-12T01:24:32.883Z,85.2
2023-09-12T01:25:32.753Z,85.3
2023-09-12T01:26:32.777Z,84.8
2023-09-12T01:27:32.798Z,85
2023-09-12T01:28:32.750Z,84.9
2023-09-12T01:29:32.789Z,84.6
2023-09-12T01:30:32.888Z,84.5
2023-09-12T01:31:32.836Z,84.2
2023-09-12T01:32:32.843Z,84.2
2023-09-12T01:33:32.894Z,84.4
2023-09-12T01:34:32.819Z,84.5
2023-09-12T01:35:32.853Z,84.3
2023-09-12T01:36:33.139Z,84.4
2023-09-12T01:37:32.836Z,84.4
2023-09-12T01:38:32.834Z,83.4
2023-09-12T01:39:32.878Z,84.5
2023-09-12T01:40:32.820Z,84.2
2023-09-12T01:41:32.870Z,85.2
2023-09-12T01:42:32.862Z,86.9
2023-09-12T01:43:32.867Z,88.2
2023-09-12T01:44:32.877Z,87.4
2023-09-12T01:45:32.923Z,87.1
2023-09-12T01:46:32.907Z,86.7
2023-09-12T01:47:32.894Z,87.7
2023-09-12T01:48:32.962Z,87.7
2023-09-12T01:49:32.848Z,87.4
2023-09-12T01:50:32.864Z,87.5
2023-09-12T01:51:32.988Z,87.6
2023-09-12T01:52:32.921Z,87
2023-09-12T01:53:32.895Z,87
2023-09-12T01:54:32.906Z,87.1
2023-09-12T01:55:32.939Z,87.9
2023-09-12T01:56:32.916Z,88.6
2023-09-12T01:57:32.956Z,89.2
2023-09-12T01:58:32.895Z,88.7
2023-09-12T01:59:32.920Z,88.5
2023-09-12T02:00:32.965Z,88.5
2023-09-12T02:01:32.965Z,88.3
2023-09-12T02:02:32.917Z,88.1
2023-09-12T02:03:33.044Z,87.8
2023-09-12T02:04:32.944Z,87.4
2023-09-12T02:05:32.975Z,87.2
2023-09-12T02:06:33.015Z,87.3
2023-09-12T02:07:32.954Z,87.1
2023-09-12T02:08:32.913Z,87
2023-09-12T02:09:33.007Z,87.1
2023-09-12T02:10:32.994Z,86.9
2023-09-12T02:11:32.982Z,86.6
2023-09-12T02:12:32.979Z,86.1
2023-09-12T02:13:32.978Z,86.2
2023-09-12T02:14:32.986Z,86
2023-09-12T02:15:33.145Z,85.9
2023-09-12T02:16:33.130Z,85.9
2023-09-12T02:17:33.245Z,86.1
2023-09-12T02:18:33.035Z,85.9
2023-09-12T02:19:33.032Z,86.1
2023-09-12T02:20:33.066Z,86.3
2023-09-12T02:21:33.034Z,86.1
2023-09-12T02:22:33.047Z,86
2023-09-12T02:23:33.007Z,85.8
2023-09-12T02:24:33.085Z,86
2023-09-12T02:25:33.020Z,85.4
2023-09-12T02:26:33.030Z,85.7
2023-09-12T02:27:33.053Z,85.6
2023-09-12T02:28:33.039Z,85.3
2023-09-12T02:29:33.030Z,85.1
2023-09-12T02:30:33.064Z,85.2
2023-09-12T02:31:33.065Z,85.7
2023-09-12T02:32:33.067Z,85.7
2023-09-12T02:33:33.148Z,85.6
2023-09-12T02:34:33.043Z,85.6
2023-09-12T02:35:33.108Z,85.6
2023-09-12T02:36:33.089Z,85.6
2023-09-12T02:37:33.125Z,85.6
2023-09-12T02:38:33.127Z,85.4
2023-09-12T02:39:33.139Z,85.6
2023-09-12T02:40:33.105Z,85.8
2023-09-12T02:41:33.093Z,85.4
2023-09-12T02:42:33.175Z,86.2
2023-09-12T02:43:33.100Z,86.3
2023-09-12T02:44:33.113Z,86.3
2023-09-12T02:45:33.179Z,86.4
2023-09-12T02:46:33.120Z,87.1
2023-09-12T02:47:33.143Z,87
2023-09-12T02:48:33.176Z,86.8
2023-09-12T02:49:33.136Z,86.3
2023-09-12T02:50:33.119Z,86.5
2023-09-12T02:51:33.191Z,87.2
2023-09-12T02:52:33.152Z,87.3
2023-09-12T02:53:33.099Z,87
2023-09-12T02:54:33.189Z,86.5
2023-09-12T02:55:33.166Z,87.4
2023-09-12T02:56:33.148Z,87.6
2023-09-12T02:57:33.227Z,88.2
2023-09-12T02:58:33.108Z,89.5
2023-09-12T02:59:33.181Z,89.4
2023-09-12T03:00:33.218Z,89.1
2023-09-12T03:01:33.337Z,89.1
2023-09-12T03:02:33.270Z,89.1
2023-09-12T03:03:33.310Z,89.2
2023-09-12T03:04:33.209Z,88.8
2023-09-12T03:05:33.201Z,89.1
2023-09-12T03:06:33.175Z,89.1
2023-09-12T03:07:33.214Z,89.1
2023-09-12T03:08:33.224Z,89.2
2023-09-12T03:09:33.228Z,88.8
2023-09-12T03:10:33.257Z,88.9
2023-09-12T03:11:33.207Z,90.3
2023-09-12T03:12:33.290Z,90.5
2023-09-12T03:13:33.245Z,91.2
2023-09-12T03:14:33.236Z,91
2023-09-12T03:15:33.359Z,90.6
2023-09-12T03:16:33.310Z,90.3
2023-09-12T03:17:33.303Z,90.4
2023-09-12T03:18:33.279Z,90.3
2023-09-12T03:19:33.245Z,91.3
2023-09-12T03:20:33.314Z,91.5
2023-09-12T03:21:33.288Z,91
2023-09-12T03:22:33.280Z,91.2
2023-09-12T03:23:33.275Z,90.9
2023-09-12T03:24:33.331Z,91.1
2023-09-12T03:25:33.256Z,91.6
2023-09-12T03:26:33.252Z,91.8
2023-09-12T03:27:33.286Z,91.8
2023-09-12T03:28:33.313Z,91.4
2023-09-12T03:29:33.310Z,91.5
2023-09-12T03:30:33.330Z,90.7
2023-09-12T03:31:33.342Z,91.1
2023-09-12T03:32:33.294Z,91.3
2023-09-12T03:33:33.423Z,91.6
2023-09-12T03:34:33.336Z,91.6
2023-09-12T03:35:33.359Z,91.2
2023-09-12T03:36:33.401Z,92.1
2023-09-12T03:37:33.375Z,92
2023-09-12T03:38:33.317Z,91.8
2023-09-12T03:39:33.366Z,92.8
2023-09-12T03:40:33.383Z,92.6
2023-09-12T03:41:33.355Z,91.3
2023-09-12T03:42:42.293Z,92.3
2023-09-12T03:43:33.357Z,92.9
2023-09-12T03:44:33.336Z,92.5
2023-09-12T03:45:33.400Z,91.5
2023-09-12T03:46:33.377Z,92.1
2023-09-12T03:47:33.381Z,92.1
2023-09-12T03:48:33.450Z,92
2023-09-12T03:49:33.400Z,92.5
2023-09-12T03:50:33.406Z,92.4
2023-09-12T03:51:33.423Z,91.9
2023-09-12T03:52:33.406Z,91.5
2023-09-12T03:53:33.356Z,92
2023-09-12T03:54:33.371Z,92
2023-09-12T03:55:33.410Z,91.9
2023-09-12T03:56:33.344Z,91.7
2023-09-12T03:57:33.418Z,91.9
2023-09-12T03:58:33.420Z,91.6
2023-09-12T03:59:33.424Z,91.5
2023-09-12T04:00:33.490Z,91.4
2023-09-12T04:01:33.502Z,91.1
2023-09-12T04:02:33.424Z,91.1
2023-09-12T04:03:33.556Z,90.7
2023-09-12T04:04:33.555Z,90.4
2023-09-12T04:05:33.507Z,90.1
2023-09-12T04:06:33.497Z,89.8
2023-09-12T04:07:33.452Z,89.7
2023-09-12T04:08:33.467Z,89.4
2023-09-12T04:09:33.478Z,89.5
2023-09-12T04:10:33.457Z,89.4
2023-09-12T04:11:45.560Z,89.6
2023-09-12T04:12:33.552Z,89.2
2023-09-12T04:13:33.486Z,89.2
2023-09-12T04:14:33.467Z,88.9
2023-09-12T04:15:33.536Z,88.8
2023-09-12T04:16:33.505Z,88.3
2023-09-12T04:17:33.548Z,88.4
2023-09-12T04:18:33.586Z,88.3
2023-09-12T04:19:33.520Z,87.8
2023-09-12T04:20:33.537Z,88.2
2023-09-12T04:21:33.548Z,88.5
2023-09-12T04:22:33.493Z,89.6
2023-09-12T04:23:33.488Z,90.4
2023-09-12T04:24:33.589Z,90
2023-09-12T04:25:33.551Z,90.2
2023-09-12T04:26:33.498Z,89.6
2023-09-12T04:27:33.529Z,89.3
2023-09-12T04:28:33.552Z,90.3
2023-09-12T04:29:33.534Z,90.8
2023-09-12T04:30:33.599Z,89.9
2023-09-12T04:31:33.612Z,89.9
2023-09-12T04:32:33.595Z,90.8
2023-09-12T04:33:33.611Z,90.8
2023-09-12T04:34:33.526Z,90.5
2023-09-12T04:35:33.596Z,90.8
2023-09-12T04:36:33.614Z,91.2
2023-09-12T04:37:33.539Z,91.7
2023-09-12T04:38:33.577Z,91.3
2023-09-12T04:39:33.609Z,91.5
2023-09-12T04:40:33.578Z,91.3
2023-09-12T04:41:33.594Z,91.5
2023-09-12T04:42:33.635Z,91.3
2023-09-12T04:43:33.625Z,91.4
2023-09-12T04:44:33.581Z,91.8
2023-09-12T04:45:33.638Z,91.6
2023-09-12T04:46:33.629Z,91.7
2023-09-12T04:47:33.650Z,91.3
2023-09-12T04:48:33.683Z,90.8
2023-09-12T04:49:33.641Z,90.9
2023-09-12T04:50:33.651Z,90.2
2023-09-12T04:51:33.658Z,90.8
2023-09-12T04:52:34.392Z,90.2
2023-09-12T04:53:33.597Z,90.1
2023-09-12T04:54:33.669Z,90.9
2023-09-12T04:55:33.699Z,90.3
2023-09-12T04:56:33.617Z,90.6
2023-09-12T04:57:33.686Z,90.8
2023-09-12T04:58:33.661Z,90.5
2023-09-12T04:59:33.644Z,90.7
2023-09-12T05:00:33.744Z,90.9
2023-09-12T05:01:33.782Z,91.1
2023-09-12T05:02:33.711Z,90.8
2023-09-12T05:03:33.726Z,91.7
2023-09-12T05:04:33.711Z,91.4
2023-09-12T05:05:33.733Z,90.6
2023-09-12T05:06:33.768Z,90.4
2023-09-12T05:07:33.676Z,89.9
2023-09-12T05:08:33.701Z,89.4
2023-09-12T05:09:33.754Z,89.6
2023-09-12T05:10:33.704Z,90
2023-09-12T05:11:33.705Z,90
2023-09-12T05:12:33.791Z,91
2023-09-12T05:13:33.738Z,90.5
2023-09-12T05:14:33.726Z,89.4
2023-09-12T05:15:33.757Z,89.1
2023-09-12T05:16:33.750Z,88.8
2023-09-12T05:17:33.749Z,88.4
2023-09-12T05:18:33.782Z,88.3
2023-09-12T05:19:33.752Z,87.8
2023-09-12T05:20:33.762Z,87.8
2023-09-12T05:21:33.793Z,88.3
2023-09-12T05:22:33.770Z,88.6
2023-09-12T05:23:33.723Z,88.3
2023-09-12T05:24:33.837Z,88.3
2023-09-12T05:25:33.805Z,88.4
2023-09-12T05:26:33.784Z,88.4
2023-09-12T05:27:33.831Z,88.4
2023-09-12T05:28:33.760Z,88.1
2023-09-12T05:29:33.810Z,87.9
2023-09-12T05:30:33.845Z,87.7
2023-09-12T05:31:33.873Z,87.8
2023-09-12T05:32:33.879Z,88
2023-09-12T05:33:34.210Z,87.3
2023-09-12T05:34:33.793Z,86.6
2023-09-12T05:35:33.823Z,86.7
2023-09-12T05:36:33.854Z,86.4
2023-09-12T05:37:33.813Z,86.3
2023-09-12T05:38:33.826Z,85.8
2023-09-12T05:39:33.839Z,85.8
2023-09-12T05:40:33.843Z,86
2023-09-12T05:41:33.828Z,86.4
2023-09-12T05:42:33.874Z,86.4
2023-09-12T05:43:33.871Z,85.4
2023-09-12T05:44:34.138Z,85.3
2023-09-12T05:45:34.107Z,85.5
2023-09-12T05:46:33.883Z,85.1
2023-09-12T05:47:33.919Z,83.9
2023-09-12T05:48:33.892Z,83.2
2023-09-12T05:49:33.888Z,82.8
2023-09-12T05:50:33.871Z,82.5
2023-09-12T05:51:33.954Z,82.4
2023-09-12T05:52:33.886Z,81.9
2023-09-12T05:53:33.857Z,81.4
2023-09-12T05:54:33.943Z,81.2
2023-09-12T05:55:33.957Z,81
2023-09-12T05:56:33.914Z,81.4
2023-09-12T05:57:33.942Z,81.7
2023-09-12T05:58:33.916Z,81.7
2023-09-12T05:59:33.937Z,81.7
2023-09-12T06:00:34.012Z,80.8
2023-09-12T06:01:33.956Z,81.1
2023-09-12T06:02:33.941Z,80.3
2023-09-12T06:03:34.052Z,79.6
2023-09-12T06:04:34.091Z,80.3
2023-09-12T06:05:33.981Z,79.9
2023-09-12T06:06:33.986Z,80.7
2023-09-12T06:07:33.920Z,80.9
2023-09-12T06:08:33.960Z,80.5
2023-09-12T06:09:33.950Z,79.7
2023-09-12T06:10:34.024Z,79.6
2023-09-12T06:11:33.981Z,79
2023-09-12T06:12:34.076Z,78.6
2023-09-12T06:13:33.990Z,78.6
2023-09-12T06:14:33.959Z,78.2
2023-09-12T06:15:34.050Z,76.9
2023-09-12T06:16:34.012Z,75.3
2023-09-12T06:17:34.120Z,76.2
2023-09-12T06:18:34.048Z,75.2
2023-09-12T06:19:34.026Z,74.6
2023-09-12T06:20:34.002Z,74.6
2023-09-12T06:21:34.078Z,73.6
2023-09-12T06:22:33.986Z,73.9
2023-09-12T06:23:34.033Z,73.4
2023-09-12T06:24:34.079Z,73.6
2023-09-12T06:25:34.060Z,74
2023-09-12T06:26:34.031Z,72.9
2023-09-12T06:27:34.100Z,72.8
2023-09-12T06:28:34.033Z,73.2
2023-09-12T06:29:34.065Z,72.9
2023-09-12T06:30:34.112Z,73.4
2023-09-12T06:31:34.100Z,73.4
2023-09-12T06:32:34.118Z,73.5
2023-09-12T06:33:34.120Z,72.3
2023-09-12T06:34:34.056Z,71.6
2023-09-12T06:35:34.113Z,71.8
2023-09-12T06:36:34.087Z,70.7
2023-09-12T06:37:34.095Z,70.4
2023-09-12T06:38:34.097Z,70.2
2023-09-12T06:39:34.103Z,69.8
2023-09-12T06:40:34.092Z,69.3
2023-09-12T06:41:34.080Z,69.1
2023-09-12T06:42:34.164Z,68.6
2023-09-12T06:43:34.086Z,68.7
2023-09-12T06:44:34.123Z,68.6
2023-09-12T06:45:34.164Z,67.7
2023-09-12T06:46:34.188Z,67.8
2023-09-12T06:47:34.174Z,67.9
2023-09-12T06:48:34.170Z,68.2
2023-09-12T06:49:35.553Z,67.4
2023-09-12T06:50:35.338Z,67.4
2023-09-12T06:51:38.384Z,67.7
2023-09-12T06:52:34.137Z,66.9
2023-09-12T06:53:34.162Z,67.3
2023-09-12T06:54:34.209Z,66.5
2023-09-12T06:55:34.161Z,66
2023-09-12T06:56:34.171Z,66
2023-09-12T06:57:34.219Z,66.1
2023-09-12T06:58:34.143Z,65.1
2023-09-12T06:59:34.160Z,63.9
2023-09-12T07:00:34.307Z,64.6
2023-09-12T07:01:34.232Z,63.6
2023-09-12T07:02:34.241Z,63.6
2023-09-12T07:03:34.253Z,64.4
2023-09-12T07:04:34.220Z,64.6
2023-09-12T07:05:34.257Z,65.5
2023-09-12T07:06:34.342Z,64.7
2023-09-12T07:07:34.209Z,64.6
2023-09-12T07:08:34.217Z,64.2
2023-09-12T07:09:34.269Z,64.3
2023-09-12T07:10:34.247Z,66.2
2023-09-12T07:11:34.212Z,65.9
2023-09-12T07:12:34.247Z,65.7
2023-09-12T07:13:34.173Z,66.4
2023-09-12T07:14:34.207Z,66.8
2023-09-12T07:15:34.315Z,67.4
2023-09-12T07:16:34.289Z,67
2023-09-12T07:17:34.256Z,66.7
2023-09-12T07:18:34.293Z,66.8
2023-09-12T07:19:34.270Z,66.4
2023-09-12T07:20:34.288Z,65.7
2023-09-12T07:21:34.278Z,64.3
2023-09-12T07:22:34.274Z,64.7
2023-09-12T07:23:34.269Z,63.4
2023-09-12T07:24:34.290Z,64.5
2023-09-12T07:25:34.282Z,63.5
2023-09-12T07:26:34.284Z,62.9
2023-09-12T07:27:34.348Z,64
2023-09-12T07:28:34.287Z,64.4
2023-09-12T07:29:34.288Z,65.1
2023-09-12T07:30:34.407Z,63.6
2023-09-12T07:31:34.352Z,64.2
2023-09-12T07:32:34.305Z,62.3
2023-09-12T07:33:34.385Z,63
2023-09-12T07:34:34.279Z,63.1
2023-09-12T07:35:34.318Z,64.3
2023-09-12T07:36:34.362Z,62.8
2023-09-12T07:37:34.334Z,62.6
2023-09-12T07:38:34.324Z,63.2
2023-09-12T07:39:34.352Z,62.5
2023-09-12T07:40:34.400Z,63.1
2023-09-12T07:41:34.337Z,62.2
2023-09-12T07:42:34.349Z,61.3
2023-09-12T07:43:34.343Z,61.9
2023-09-12T07:44:34.374Z,62.2
2023-09-12T07:45:36.053Z,63.5
2023-09-12T07:46:34.394Z,63
2023-09-12T07:47:34.371Z,63
2023-09-12T07:48:34.429Z,63.5
2023-09-12T07:49:34.376Z,63.7
2023-09-12T07:50:34.391Z,63.5
2023-09-12T07:51:34.415Z,63.2
2023-09-12T07:52:34.393Z,63.5
2023-09-12T07:53:34.378Z,64
2023-09-12T07:54:34.406Z,62.1
2023-09-12T07:55:34.415Z,61.3
2023-09-12T07:56:34.398Z,61.9
2023-09-12T07:57:34.464Z,62
2023-09-12T07:58:34.448Z,62.4
2023-09-12T07:59:34.379Z,63.2
2023-09-12T08:00:34.487Z,61.2
2023-09-12T08:01:34.489Z,61.3
2023-09-12T08:02:34.433Z,60.9
2023-09-12T08:03:34.545Z,60.6
2023-09-12T08:04:34.599Z,60.3
2023-09-12T08:05:34.486Z,59.7
2023-09-12T08:06:47.748Z,59.9
2023-09-12T08:07:34.442Z,59.8
2023-09-12T08:08:34.488Z,59.5
2023-09-12T08:09:34.505Z,59.3
2023-09-12T08:10:34.461Z,60.2
2023-09-12T08:11:34.466Z,60.3
2023-09-12T08:12:34.524Z,60.5
2023-09-12T08:13:34.505Z,59.7
2023-09-12T08:14:34.490Z,59.1
2023-09-12T08:15:34.571Z,59.7
2023-09-12T08:16:34.532Z,60.6
2023-09-12T08:17:34.523Z,61.3
2023-09-12T08:18:34.471Z,61.2
2023-09-12T08:19:34.480Z,60.5
2023-09-12T08:20:34.523Z,60.4
2023-09-12T08:21:34.540Z,60.2
2023-09-12T08:22:34.532Z,61.2
2023-09-12T08:23:34.496Z,62.3
2023-09-12T08:24:34.562Z,61.1
2023-09-12T08:25:34.547Z,61.7
2023-09-12T08:26:34.531Z,61.2
2023-09-12T08:27:34.563Z,62.4
2023-09-12T08:28:34.549Z,61.1
2023-09-12T08:29:34.523Z,61.7
2023-09-12T08:30:34.603Z,61.1
2023-09-12T08:31:34.566Z,60.1
2023-09-12T08:32:34.555Z,60.6
2023-09-12T08:33:34.642Z,60.4
2023-09-12T08:34:34.553Z,61.1
2023-09-12T08:35:34.593Z,61
2023-09-12T08:36:34.651Z,60.7
2023-09-12T08:37:34.586Z,60.9
2023-09-12T08:38:34.591Z,61.9
2023-09-12T08:39:34.589Z,61.3
2023-09-12T08:40:34.571Z,60.6
2023-09-12T08:41:34.587Z,60.4
2023-09-12T08:42:34.591Z,60.5
2023-09-12T08:43:34.572Z,60.6
2023-09-12T08:44:34.614Z,60.6
2023-09-12T08:45:34.716Z,59.1
2023-09-12T08:46:34.607Z,60.7
2023-09-12T08:47:34.636Z,59.6
2023-09-12T08:48:34.685Z,61.3
2023-09-12T08:49:34.619Z,60.8
2023-09-12T08:50:34.666Z,60.1
2023-09-12T08:51:34.716Z,58
2023-09-12T08:52:34.558Z,58.1
2023-09-12T08:53:34.615Z,56.8
2023-09-12T08:54:34.759Z,57.7
2023-09-12T08:55:34.685Z,57.3
2023-09-12T08:56:34.663Z,56.6
2023-09-12T08:57:34.672Z,57.4
2023-09-12T08:58:34.617Z,58
2023-09-12T08:59:34.695Z,57.6
2023-09-12T09:00:34.739Z,57.4
2023-09-12T09:01:34.704Z,57.5
2023-09-12T09:02:34.695Z,56.2
2023-09-12T09:03:34.762Z,56.4
2023-09-12T09:04:34.684Z,57.2
2023-09-12T09:05:34.804Z,56.3
2023-09-12T09:06:34.756Z,57.4
2023-09-12T09:07:34.735Z,56.9
2023-09-12T09:08:34.697Z,57
2023-09-12T09:09:34.730Z,57.1
2023-09-12T09:11:34.718Z,56.8
2023-09-12T09:12:34.688Z,56.9
2023-09-12T09:13:34.717Z,56.4
2023-09-12T09:14:34.725Z,56.5
2023-09-12T09:15:34.794Z,56.2
2023-09-12T09:16:34.761Z,57
2023-09-12T09:17:36.304Z,56.8
2023-09-12T09:18:34.841Z,56.7
2023-09-12T09:19:34.763Z,57
2023-09-12T09:20:34.791Z,58.6
2023-09-12T09:21:34.793Z,57.1
2023-09-12T09:22:34.739Z,55.5
2023-09-12T09:23:34.726Z,55.7
2023-09-12T09:24:34.804Z,55.2
2023-09-12T09:25:34.768Z,54.7
2023-09-12T09:26:35.073Z,54.8
2023-09-12T09:27:34.803Z,55.2
2023-09-12T09:28:34.790Z,54.3
2023-09-12T09:29:34.797Z,54.3
2023-09-12T09:30:34.850Z,54.6
2023-09-12T09:31:34.826Z,54.1
2023-09-12T09:32:34.831Z,54.3
2023-09-12T09:33:34.869Z,54.3
2023-09-12T09:34:34.819Z,55.4
2023-09-12T09:35:34.837Z,55.4
2023-09-12T09:36:34.833Z,55
2023-09-12T09:37:34.824Z,54.5
2023-09-12T09:38:34.821Z,54.2
2023-09-12T09:39:34.897Z,55.4
2023-09-12T09:40:34.874Z,56.2
2023-09-12T09:41:34.868Z,55.6
2023-09-12T09:42:34.906Z,55.7
2023-09-12T09:43:34.844Z,55.2
2023-09-12T09:44:34.835Z,55
2023-09-12T09:45:34.956Z,54.2
2023-09-12T09:46:34.841Z,53.7
2023-09-12T09:47:34.891Z,54
2023-09-12T09:48:34.925Z,54
2023-09-12T09:49:34.884Z,53.2
2023-09-12T09:50:34.879Z,52.1
2023-09-12T09:51:34.876Z,52.4
2023-09-12T09:52:34.875Z,52.6
2023-09-12T09:53:34.899Z,52.8
2023-09-12T09:54:35.022Z,52.6
2023-09-12T09:55:34.910Z,52.9
2023-09-12T09:56:34.926Z,53.2
2023-09-12T09:57:34.951Z,51.4
2023-09-12T09:58:34.931Z,51.8
2023-09-12T09:59:34.909Z,51.5
2023-09-12T10:00:34.959Z,53
2023-09-12T10:01:34.927Z,51.6
2023-09-12T10:02:34.981Z,51.8
2023-09-12T10:03:35.022Z,51.2
2023-09-12T10:04:47.185Z,50.9
2023-09-12T10:05:34.962Z,51.8
2023-09-12T10:06:34.932Z,52.3
2023-09-12T10:07:34.940Z,51.8
2023-09-12T10:08:34.959Z,52.7
2023-09-12T10:09:34.998Z,51.8
2023-09-12T10:10:34.982Z,51.7
2023-09-12T10:11:34.940Z,52.9
2023-09-12T10:12:35.000Z,52.7
2023-09-12T10:13:34.976Z,52.9
2023-09-12T10:14:34.994Z,53.4
2023-09-12T10:15:35.027Z,53.5
2023-09-12T10:16:35.015Z,53.3
2023-09-12T10:17:34.997Z,52.2
2023-09-12T10:18:35.100Z,51.5
2023-09-12T10:19:35.011Z,51.7
2023-09-12T10:20:35.020Z,51.6
2023-09-12T10:21:35.119Z,51.4
2023-09-12T10:22:35.086Z,50.2
2023-09-12T10:23:34.985Z,51.2
2023-09-12T10:24:35.065Z,51.7
2023-09-12T10:25:35.044Z,52
2023-09-12T10:26:35.007Z,53
2023-09-12T10:27:35.073Z,52.9
2023-09-12T10:28:35.063Z,53.4
2023-09-12T10:29:35.064Z,52.7
2023-09-12T10:30:35.072Z,52.9
2023-09-12T10:31:35.117Z,53.2
2023-09-12T10:32:35.083Z,53.6
2023-09-12T10:33:35.150Z,53.7
2023-09-12T10:34:34.989Z,53.1
2023-09-12T10:35:35.083Z,53.3
2023-09-12T10:36:35.079Z,52.6
2023-09-12T10:37:35.073Z,52.8
2023-09-12T10:38:35.024Z,52.8
2023-09-12T10:39:35.101Z,53.3
2023-09-12T10:40:35.616Z,52.8
2023-09-12T10:41:35.028Z,52.8
2023-09-12T10:42:35.100Z,52.1
2023-09-12T10:43:35.111Z,51.4
2023-09-12T10:44:35.116Z,51.3
2023-09-12T10:45:35.147Z,50.2
2023-09-12T10:46:35.238Z,50.5
2023-09-12T10:47:35.089Z,50.2
2023-09-12T10:48:35.175Z,50.8
2023-09-12T10:49:35.124Z,51.5
2023-09-12T10:50:35.104Z,50.3
2023-09-12T10:51:35.162Z,51.6
2023-09-12T10:52:35.152Z,51.8
2023-09-12T10:53:35.162Z,52.2
2023-09-12T10:54:35.165Z,51.8
2023-09-12T10:55:35.171Z,52.3
2023-09-12T10:56:35.175Z,51.5
2023-09-12T10:57:35.201Z,51.2
2023-09-12T10:58:35.160Z,51
2023-09-12T10:59:35.182Z,52
2023-09-12T11:00:35.323Z,52
2023-09-12T11:01:35.257Z,51.3
2023-09-12T11:02:35.211Z,51.6
2023-09-12T11:03:35.307Z,52.4
2023-09-12T11:04:35.263Z,50.3
2023-09-12T11:05:35.203Z,51.2
2023-09-12T11:06:35.192Z,51.3
2023-09-12T11:07:35.196Z,50.7
2023-09-12T11:08:35.213Z,50.1
2023-09-12T11:09:35.208Z,51.1
2023-09-12T11:10:35.205Z,50.1
2023-09-12T11:11:35.209Z,51.4
2023-09-12T11:12:35.256Z,51.4
2023-09-12T11:13:35.201Z,50.6
2023-09-12T11:14:35.258Z,50.8
2023-09-12T11:15:35.273Z,50.2
2023-09-12T11:16:35.267Z,50.4
2023-09-12T11:17:35.247Z,50.3
2023-09-12T11:18:35.286Z,50
2023-09-12T11:19:35.250Z,51
2023-09-12T11:20:35.273Z,51.3
2023-09-12T11:21:35.323Z,51.3
2023-09-12T11:22:35.214Z,50.8
2023-09-12T11:23:35.256Z,50.7
2023-09-12T11:24:35.322Z,50.7
2023-09-12T11:25:35.298Z,50.2
2023-09-12T11:26:35.297Z,50
2023-09-12T11:27:35.359Z,49.4
2023-09-12T11:28:35.287Z,49.2
2023-09-12T11:29:35.283Z,49.7
2023-09-12T11:30:35.377Z,50.4
2023-09-12T11:31:35.341Z,49.9
2023-09-12T11:32:35.404Z,49.6
2023-09-12T11:33:35.446Z,49.7
2023-09-12T11:34:35.269Z,49.9
2023-09-12T11:35:35.324Z,49.8
2023-09-12T11:36:35.339Z,48.6
2023-09-12T11:37:35.264Z,47.5
2023-09-12T11:38:35.339Z,48.7
2023-09-12T11:39:35.398Z,48.2
2023-09-12T11:40:35.328Z,48.3
2023-09-12T11:41:35.338Z,47.4
2023-09-12T11:42:35.409Z,47
2023-09-12T11:43:35.354Z,47.5
2023-09-12T11:44:35.343Z,47.5
2023-09-12T11:45:35.396Z,48.1
2023-09-12T11:46:35.528Z,47.9
2023-09-12T11:47:35.398Z,47.5
2023-09-12T11:48:35.466Z,47.6
2023-09-12T11:49:35.425Z,47.6
2023-09-12T11:50:35.441Z,47.4
2023-09-12T11:51:35.408Z,47.9
2023-09-12T11:52:35.392Z,47
2023-09-12T11:53:35.361Z,47.6
2023-09-12T11:54:35.399Z,46.5
2023-09-12T11:55:35.412Z,46.6
2023-09-12T11:56:35.406Z,46.8
2023-09-12T11:57:35.486Z,46.8
2023-09-12T11:58:35.434Z,45.6
2023-09-12T11:59:35.409Z,45.7
2023-09-12T12:00:35.463Z,45.7
2023-09-12T12:01:35.442Z,45.9
2023-09-12T12:02:35.414Z,43.8
2023-09-12T12:03:35.569Z,43.9
2023-09-12T12:04:35.592Z,42.7
2023-09-12T12:05:35.466Z,43.8
2023-09-12T12:06:35.460Z,41
2023-09-12T12:07:35.435Z,42.4
2023-09-12T12:08:35.449Z,41.9
2023-09-12T12:09:35.447Z,43
2023-09-12T12:10:35.495Z,43.1
2023-09-12T12:11:35.466Z,43.3
2023-09-12T12:12:35.469Z,41.8
2023-09-12T12:13:35.441Z,42.6
2023-09-12T12:14:35.458Z,42.6
2023-09-12T12:15:35.627Z,42.3
2023-09-12T12:16:35.535Z,41
2023-09-12T12:17:35.479Z,41.9
2023-09-12T12:18:35.496Z,41.4
2023-09-12T12:19:35.501Z,42.3
2023-09-12T12:20:35.525Z,41.4
2023-09-12T12:21:37.632Z,41.6
2023-09-12T12:22:35.488Z,40.7
2023-09-12T12:23:35.479Z,41.8
2023-09-12T12:24:35.510Z,40.4
2023-09-12T12:25:35.524Z,41.3
2023-09-12T12:26:35.519Z,41.6
2023-09-12T12:27:35.544Z,41.8
2023-09-12T12:28:35.537Z,41.9
2023-09-12T12:29:35.506Z,42.4
2023-09-12T12:30:35.663Z,40.7
2023-09-12T12:31:35.600Z,41
2023-09-12T12:32:35.563Z,40.8
2023-09-12T12:34:03.950Z,41.4
2023-09-12T12:35:08.959Z,40.8
2023-09-12T12:35:46.523Z,41.2
2023-09-12T12:36:40.720Z,41.9
2023-09-12T12:37:35.578Z,40.8
2023-09-12T12:38:36.246Z,41.8
2023-09-12T12:39:35.648Z,41
2023-09-12T12:40:43.780Z,41
